Date,TemperatureHighF,TemperatureAvgF,TemperatureLowF,DewpointHighF,DewpointAvgF,DewpointLowF,HumidityHigh,HumidityAvg,HumidityLow,PressureMaxIn,PressureMinIn,WindSpeedMaxMPH,WindSpeedAvgMPH,GustSpeedMaxMPH,PrecipitationSumIn
2012-4-16,81,78,77,63,61,59,59,56,50,30.06,29.99,23,22,23,45.30
2012-4-17,77,77,77,62,62,62,60,60,60,30.05,30.05,17,17,17,75.78
2012-4-18,77,77,77,62,62,62,60,60,60,30.05,30.05,17,17,17,0.00
2012-4-19,86,82,77,67,66,62,67,58,49,30.05,29.91,17,10,17,20.44
2012-4-20,86,80,78,70,68,67,72,67,55,29.97,29.54,15,11,15,51.09
2012-4-21,86,80,76,74,72,70,89,77,63,29.97,29.89,14,11,14,132.80
2012-4-22,83,79,76,74,73,73,92,83,72,29.99,29.92,17,11,17,215.20
2012-4-24,83,82,80,74,72,71,78,73,67,29.99,29.91,23,15,24,0.00
2012-4-25,85,81,78,74,72,70,82,73,63,30.03,29.92,21,12,24,0.00
2012-4-26,86,82,78,72,71,70,81,70,61,30.05,29.97,19,12,21,0.00
2012-4-27,84,81,79,71,68,65,74,65,55,30.42,29.97,24,17,24,0.00
2012-4-28,84,81,78,70,68,65,72,66,55,30.42,30.34,27,19,29,0.02
2012-4-29,83,80,74,72,69,67,82,70,60,30.41,30.34,30,20,34,0.39
2012-4-30,84,81,78,70,68,66,78,67,56,30.40,30.30,26,19,27,0.01
2012-5-1,84,80,74,72,70,67,84,70,63,30.38,30.30,26,19,27,0.00
2012-5-2,84,80,77,74,72,70,88,76,66,30.38,30.26,27,16,32,0.08
2012-5-3,85,79,74,75,73,71,92,82,69,30.40,30.29,31,12,31,1.09
2012-5-4,92,82,76,79,73,71,91,75,56,30.38,30.27,27,8,28,0.00
2012-5-5,94,82,77,80,73,72,86,75,53,30.32,30.24,14,5,14,0.05
2012-5-6,86,80,76,76,73,71,91,81,64,30.31,30.23,14,4,17,0.70
2012-5-7,89,80,74,84,72,71,91,77,60,30.34,30.25,11,4,12,0.18
2012-5-8,89,81,79,74,72,70,82,75,59,30.34,30.27,14,9,18,0.00
2012-5-9,86,82,80,74,73,71,79,74,64,30.35,30.29,19,11,19,0.00
2012-5-10,85,82,80,75,74,72,80,76,68,30.38,30.28,16,11,18,0.00
2012-5-11,86,82,80,75,74,73,81,77,68,30.44,30.33,18,12,19,0.00
2012-5-12,87,82,81,75,74,73,79,75,66,30.47,30.39,18,12,21,0.00
2012-5-13,86,82,80,74,72,71,79,72,64,30.45,30.36,20,12,20,0.00
2012-5-14,86,82,79,72,70,69,76,68,60,30.42,30.34,17,11,19,0.00
2012-5-15,86,82,79,72,70,68,74,69,59,30.42,30.34,21,14,24,0.00
2012-5-16,84,81,76,74,72,70,87,76,68,30.42,30.34,25,17,28,0.06
2012-5-17,85,82,80,73,72,70,78,72,64,30.43,30.34,24,18,27,0.05
2012-5-18,84,81,77,74,72,70,84,76,67,30.39,30.31,24,15,28,0.05
2012-5-19,84,81,74,74,72,71,92,76,67,30.42,30.32,28,15,34,0.05
2012-5-20,85,82,79,73,71,69,80,71,63,30.45,30.37,24,16,25,0.00
2012-5-21,85,82,79,73,72,70,79,70,63,30.47,30.40,22,15,25,0.00
2012-5-22,86,82,80,73,72,71,79,72,64,30.47,30.38,25,15,26,0.00
2012-5-23,85,82,80,72,71,69,75,68,61,30.48,30.38,24,16,26,0.00
2012-5-24,85,82,80,72,70,69,73,68,61,30.48,30.40,24,16,24,0.00
2012-5-25,86,82,79,71,70,67,74,67,55,30.46,30.37,21,14,24,0.05
2012-5-26,86,82,79,71,69,67,71,66,58,30.42,30.33,18,10,18,0.00
2012-5-27,86,82,80,71,70,69,72,67,58,30.42,30.34,17,10,17,0.00
2012-5-28,87,82,80,71,70,68,73,66,56,30.41,30.34,15,11,18,0.00
2012-5-29,87,83,80,74,72,70,77,69,61,30.41,30.34,18,11,19,0.00
2012-5-30,87,83,81,75,74,72,79,74,64,30.42,30.33,15,10,17,0.00
2012-5-31,88,83,81,75,74,71,79,73,64,30.49,30.36,27,10,29,0.00
2012-6-1,87,83,81,75,74,72,80,74,65,30.53,30.42,22,13,24,0.00
2012-6-2,88,83,81,74,73,71,77,70,59,30.52,30.42,17,10,17,0.00
2012-6-3,89,83,80,73,71,70,75,67,55,30.49,30.38,15,8,16,0.00
2012-6-4,88,83,80,72,70,69,72,66,53,30.42,30.33,11,6,13,0.00
2012-6-5,87,83,80,74,72,70,76,69,62,30.44,30.35,20,11,22,0.00
2012-6-6,87,84,82,76,73,71,77,71,64,30.50,30.40,21,14,22,0.00
2012-6-7,87,84,82,75,74,73,78,71,63,30.50,30.40,23,16,24,0.00
2012-6-8,87,84,82,75,72,71,78,69,61,30.46,30.33,22,15,23,0.00
2012-6-9,88,84,81,72,71,69,73,66,56,30.40,30.35,15,10,16,0.00
2012-6-10,88,84,81,73,72,70,74,67,56,30.42,30.33,20,11,20,0.00
2012-6-11,88,84,81,76,73,71,78,70,60,30.42,30.34,18,11,19,0.00
2012-6-12,88,84,82,75,73,72,78,70,59,30.40,30.32,17,11,20,0.00
2012-6-13,87,84,82,75,73,72,77,71,64,30.43,30.33,20,11,21,0.00
2012-6-14,91,84,81,74,73,72,76,68,54,30.44,30.37,17,10,17,0.00
2012-6-15,88,84,81,73,72,70,73,67,59,30.42,30.33,21,12,21,0.00
2012-6-16,88,84,81,76,74,71,76,70,62,30.40,30.31,22,12,24,0.00
2012-6-17,87,84,82,75,74,72,77,72,64,30.39,30.32,28,16,30,0.00
2012-6-18,87,84,82,75,73,71,76,70,61,30.46,30.36,18,13,21,0.00
2012-6-19,88,84,79,76,73,70,80,69,59,30.46,30.36,23,13,28,0.01
2012-6-20,88,84,82,76,74,72,79,71,61,30.43,30.35,20,14,21,0.00
2012-6-21,88,84,82,75,74,72,77,71,62,30.40,30.32,18,11,21,0.00
2012-6-22,89,84,81,74,73,71,76,69,58,30.43,30.34,16,9,17,0.00
2012-6-23,88,84,80,74,72,70,82,67,58,30.46,30.38,17,12,20,0.05
2012-6-24,87,84,82,74,71,69,74,65,57,30.47,30.41,21,13,21,0.00
2012-6-25,87,83,79,74,72,68,78,68,61,30.44,30.36,26,15,33,0.17
2012-6-26,87,84,82,75,73,71,75,69,60,30.45,30.38,20,12,23,0.00
2012-6-27,88,84,82,74,73,71,77,69,61,30.50,30.42,19,14,19,0.00
2012-6-28,90,85,81,74,73,71,75,68,58,30.48,30.40,20,11,21,0.00
2012-6-29,89,85,82,74,72,69,76,66,56,30.43,30.34,17,11,18,0.00
2012-6-30,88,85,82,74,72,69,73,65,55,30.42,30.34,18,12,20,0.00
2012-7-1,87,84,77,75,73,69,84,70,56,30.43,30.35,29,16,31,0.07
2012-7-2,87,84,82,76,74,73,80,71,64,30.42,30.34,26,19,26,0.01
2012-7-3,87,84,80,75,73,71,82,69,59,30.43,30.34,24,17,25,0.01
2012-7-4,86,82,76,77,74,70,90,76,66,30.39,30.31,30,16,42,0.57
2012-7-5,87,84,80,76,74,72,85,72,61,30.40,30.30,24,15,27,0.01
2012-7-6,87,84,80,75,73,71,82,70,62,30.41,30.33,26,16,26,0.01
2012-7-7,90,85,79,74,72,71,79,67,56,30.40,30.34,21,12,24,0.02
2012-7-8,89,84,81,74,72,71,78,67,58,30.40,30.32,18,12,19,0.00
2012-7-9,88,84,78,75,72,68,81,70,61,30.40,30.32,21,12,28,0.04
2012-7-10,88,85,83,75,74,72,75,69,62,30.42,30.33,24,16,24,0.00
2012-7-11,92,85,82,74,73,71,74,67,55,30.41,30.28,23,14,23,0.00
2012-7-12,89,84,76,73,71,68,83,65,52,30.34,30.27,17,12,27,0.00
2012-7-13,88,84,79,74,72,69,77,67,60,30.40,30.29,22,10,27,0.00
2012-7-14,88,84,80,76,74,71,80,71,64,30.45,30.36,24,15,28,0.02
2012-7-15,87,84,80,76,74,73,82,72,64,30.45,30.37,34,21,34,0.25
2012-7-16,89,85,83,75,74,71,76,68,60,30.43,30.35,22,14,24,0.00
2012-7-17,92,86,82,74,73,71,75,66,54,30.43,30.34,17,11,21,0.00
2012-7-18,87,84,82,74,73,70,76,69,61,30.45,30.36,24,16,25,0.01
2012-7-19,88,83,76,76,74,71,88,75,63,30.44,30.38,30,19,36,0.25
2012-7-20,88,83,78,77,74,72,89,75,62,30.40,30.32,31,18,37,0.20
2012-7-21,88,84,79,76,75,73,86,74,62,30.44,30.34,27,13,28,0.01
2012-7-22,90,85,83,77,74,72,82,70,59,30.47,30.39,25,16,27,0.04
2012-7-23,88,85,82,74,72,70,72,66,56,30.47,30.39,24,18,27,0.01
2012-7-24,88,85,82,75,74,73,76,69,61,30.44,30.36,24,14,25,0.02
2012-7-25,88,84,82,74,72,71,73,67,59,30.43,30.37,17,11,19,0.00
2012-7-26,90,85,79,75,72,70,79,67,52,30.44,30.36,20,12,22,0.01
2012-7-27,88,84,80,74,71,68,78,64,53,30.44,30.37,24,16,29,0.01
2012-7-28,89,85,81,75,74,72,78,69,59,30.42,30.35,21,13,22,0.00
2012-7-29,90,86,81,77,75,73,81,71,59,30.40,30.30,24,13,24,0.00
2012-7-30,84,83,78,76,75,72,87,76,73,30.37,30.28,24,15,30,0.21
2012-7-31,82,80,76,75,74,73,91,84,78,30.44,30.35,17,6,17,1.05
2012-8-1,88,85,82,76,74,73,82,70,61,30.42,30.34,19,14,22,0.00
2012-8-2,88,84,82,75,73,72,76,69,61,30.42,30.31,22,13,26,0.00
2012-8-3,90,84,76,76,73,71,89,71,61,30.43,30.30,36,16,45,0.02
2012-8-4,87,84,78,75,74,71,86,72,63,30.46,30.32,30,15,32,0.00
2012-8-5,88,85,82,74,74,72,76,70,62,30.46,30.39,20,14,21,0.00
2012-8-6,92,85,82,75,73,72,74,68,54,30.43,30.32,21,11,21,0.00
2012-8-7,88,84,83,76,74,72,75,71,63,30.38,30.30,19,15,21,0.00
2012-8-8,91,85,81,76,74,72,80,70,59,30.37,30.29,23,13,24,0.00
2012-8-9,91,85,82,76,75,74,79,73,60,30.40,30.30,18,10,21,0.00
2012-8-10,89,85,83,77,75,74,80,74,65,30.43,30.34,17,11,19,0.00
2012-8-11,88,85,83,76,74,72,75,69,62,30.41,30.33,25,18,25,0.00
2012-8-12,88,85,83,76,74,70,76,69,58,30.42,30.34,28,16,28,0.02
2012-8-13,88,85,83,75,73,72,76,69,60,30.43,30.35,21,15,21,0.00
2012-8-14,91,85,78,76,73,71,85,68,55,30.42,30.32,20,11,27,0.11
2012-8-15,90,84,76,76,73,69,87,70,60,30.42,30.34,16,7,17,0.08
2012-8-16,89,85,80,76,74,71,83,70,59,30.42,30.34,17,11,21,0.05
2012-8-17,87,84,78,77,75,73,84,75,67,30.43,30.32,32,13,32,0.08
2012-8-18,90,86,83,77,75,74,78,72,63,30.44,30.35,20,12,21,0.00
2012-8-19,91,85,83,75,73,71,75,67,56,30.47,30.40,20,13,21,0.00
2012-8-20,90,85,83,78,74,72,79,69,59,30.44,30.35,24,14,27,0.02
2012-8-21,90,85,78,76,75,72,86,72,61,30.40,30.33,24,12,27,0.12
2012-8-22,86,84,80,78,75,73,85,75,71,30.35,29.70,29,12,36,0.66
2012-8-23,85,83,79,76,74,70,87,76,66,29.87,29.67,45,7,67,8.92
2012-8-24,88,84,80,76,73,68,80,70,62,29.90,29.81,16,3,18,0.83
2012-8-25,87,84,82,75,74,72,77,71,64,29.90,29.81,14,4,16,0.00
2012-8-26,89,84,82,75,73,70,78,69,54,29.97,29.86,15,6,17,0.00
2012-8-27,88,84,83,75,73,71,75,69,60,30.01,29.91,17,10,21,0.00
2012-8-28,90,85,83,76,74,72,78,70,61,30.01,29.91,17,12,19,0.00
2012-8-29,92,85,82,75,72,69,74,66,52,29.98,29.87,17,9,20,0.00
2012-8-30,90,85,81,74,72,69,77,66,54,29.95,29.88,17,9,18,0.00
2012-8-31,93,85,80,75,73,70,82,67,53,29.95,29.86,19,11,23,0.05
2012-9-1,91,85,81,76,73,71,83,68,58,29.91,29.78,15,8,19,0.04
2012-9-2,91,85,81,76,75,72,83,72,60,29.89,29.75,21,9,24,0.02
2012-9-3,90,85,82,76,74,72,80,71,59,29.95,29.84,22,12,24,0.00
2012-9-4,93,86,82,76,75,72,79,70,53,29.94,29.87,19,8,22,0.00
2012-9-5,95,87,82,76,74,73,80,67,51,29.93,29.85,17,8,17,0.00
2012-9-6,93,86,81,77,74,73,78,67,53,29.93,29.84,23,7,23,0.00
2012-9-7,91,86,81,75,73,68,77,66,49,29.90,29.82,21,8,23,0.00
2012-9-8,93,86,81,75,73,70,77,64,48,29.95,29.84,20,8,20,0.00
2012-9-9,92,86,82,74,72,70,73,64,51,29.98,29.90,12,6,14,0.00
2012-9-10,93,85,82,74,72,71,73,65,53,29.95,29.86,14,9,16,0.00
2012-9-11,90,85,80,75,73,72,82,69,58,29.93,29.83,22,9,27,0.04
2012-9-12,93,86,82,75,73,70,75,66,53,29.89,29.79,18,10,18,0.01
2012-9-13,92,86,83,75,74,72,75,67,53,29.87,29.78,14,8,16,0.00
2012-9-14,94,86,81,75,74,72,79,66,54,29.91,29.82,14,5,17,0.01
2012-9-15,92,87,83,75,73,72,74,65,53,29.91,29.84,11,6,12,0.00
2012-9-16,93,87,83,77,74,72,75,67,55,29.90,29.82,14,8,17,0.00
2012-9-17,93,86,83,77,75,73,79,71,58,29.91,29.82,18,10,19,0.02
2012-9-18,90,85,81,78,76,73,83,74,63,29.93,29.83,24,12,24,0.02
2012-9-19,92,86,82,77,75,73,80,71,60,29.92,29.82,17,9,17,0.00
2012-9-20,92,85,82,78,75,71,81,72,57,29.88,29.75,20,5,21,0.00
2012-9-21,93,86,83,75,74,71,75,67,55,29.89,29.77,18,10,21,0.00
2012-9-22,90,86,83,76,74,73,77,69,61,29.95,29.85,27,12,27,0.00
2012-9-23,90,86,84,75,73,72,72,66,58,29.97,29.87,21,15,24,0.01
2012-9-24,92,86,84,75,73,70,73,66,54,29.93,29.82,21,12,21,0.00
2012-9-25,94,86,82,76,74,71,74,67,54,29.91,29.84,16,10,19,0.00
2012-9-26,93,86,82,75,73,71,74,65,53,29.90,29.81,14,8,15,0.00
2012-9-27,93,85,82,76,72,71,74,66,53,29.88,29.78,15,6,17,0.00
2012-9-28,89,85,80,74,73,69,77,68,60,29.89,29.81,17,9,20,0.00
2012-9-29,89,85,83,76,74,71,75,68,61,29.93,29.84,16,9,17,0.00
2012-9-30,91,85,84,76,74,71,75,69,57,29.94,29.85,26,10,30,0.00
2012-10-1,90,84,78,77,74,71,86,72,61,29.93,29.85,19,8,25,0.30
2012-10-2,88,85,78,75,74,71,81,69,61,29.96,29.87,24,10,25,0.06
2012-10-3,90,86,83,74,73,70,74,66,56,29.95,29.86,24,14,26,0.00
2012-10-4,92,85,81,76,73,71,79,69,55,29.91,29.79,19,10,22,0.01
2012-10-5,88,84,81,73,72,70,73,65,55,29.82,29.74,19,10,20,0.01
2012-10-6,93,84,78,78,70,69,77,64,48,29.78,29.68,15,4,18,0.00
2012-10-7,91,85,81,75,72,70,76,65,54,29.91,29.75,14,8,14,0.00
2012-10-8,90,85,81,75,74,73,78,70,58,29.94,29.85,19,9,19,0.00
2012-10-9,88,86,81,75,74,70,77,68,61,29.94,29.82,17,11,17,0.00
2012-10-10,90,84,79,76,74,68,79,71,61,29.90,29.78,25,12,30,0.00
2012-10-11,86,82,80,75,73,71,80,75,68,29.86,29.77,25,16,29,0.07
2012-10-12,87,84,79,76,74,71,85,72,63,29.85,29.72,25,16,28,0.09
2012-10-13,82,79,77,76,74,72,89,86,79,29.77,29.55,26,0,32,0.11
2012-10-14,79,79,79,74,74,74,87,87,87,29.68,29.56,0,0,0,0.11
2012-10-15,79,79,79,74,74,74,87,87,87,29.73,29.60,0,0,0,0.11
2012-10-16,79,79,79,74,74,74,87,87,87,29.81,29.67,0,0,0,0.11
2012-10-17,79,79,79,74,74,74,87,87,87,29.86,29.77,0,0,0,0.11
2012-10-18,79,79,79,74,74,74,87,87,87,29.87,29.79,0,0,0,0.11
2012-12-21,82,80,79,72,70,69,79,73,68,30.02,29.93,19,10,22,0.00
2012-12-22,82,80,78,70,67,64,74,66,58,30.02,29.94,15,7,21,0.00
2012-12-23,80,79,78,69,66,64,71,66,61,30.05,29.94,18,8,21,0.00
2012-12-24,81,80,79,70,68,65,74,69,63,30.05,29.94,21,13,27,0.00
2012-12-25,81,80,79,73,71,68,81,74,68,30.04,29.94,19,12,22,0.00
2012-12-26,82,80,77,74,73,72,89,80,74,30.05,29.97,27,10,29,0.00
2012-12-27,81,79,76,74,72,71,89,79,74,30.07,29.98,25,15,29,0.08
2012-12-28,81,80,76,73,71,66,86,75,64,30.08,29.98,26,16,32,0.15
2012-12-29,81,80,79,70,67,64,74,67,58,30.09,29.99,26,16,28,0.00
2012-12-30,81,80,78,73,71,68,81,75,68,30.09,30.01,20,11,24,0.00
2012-12-31,83,80,78,72,69,67,76,70,64,30.11,30.01,19,9,25,0.00
2013-1-1,81,79,78,70,68,64,74,68,59,30.11,30.01,22,14,28,0.00